Daihatsumaru — JD2764 — position and weather

sailwx.info

Track history (hours):
 
Tides and Currents Weather Stations Pressure Air Temp Water Temp Dewpoint Dewpoint Depression Visibility Wind Speed Wind Dir Waves Ship Positions

Daihatsumaru

Last reported at 2017-Oct-20 04:59 UTC. Time now 2017-Oct-22 17:14 UTC.
Position N 34°37' E 135°01'.

Length 106 m; draft 4.5 m.

Type: Cargo ship. MMSI: 431000701.

Date/timePositionNaut miles runAvg speedWind from/ knotsBaromVisibWave heightAir tempDewpointWater temp
2017-Oct-20 04:59N 34°37' E 135°01'613.0
2017-Oct-20 04:30N 34°36' E 135°08'815.7
2017-Oct-20 04:00N 34°38' E 135°18'610.8
2017-Oct-20 03:30N 34°41' E 135°23'0 0.0
2017-Oct-20 02:57N 34°41' E 135°23'0 0.0
2017-Oct-20 02:27N 34°41' E 135°23'0 0.0
2017-Oct-20 01:50N 34°41' E 135°23'0 0.0
2017-Oct-19 23:27N 34°41' E 135°23'0 0.0
2017-Oct-19 23:00N 34°41' E 135°23'3 5.1
2017-Oct-19 22:30N 34°40' E 135°21'0 0.0
2017-Oct-19 21:51N 34°40' E 135°21'0 0.0
2017-Oct-19 21:27N 34°40' E 135°21'0 0.0
2017-Oct-19 20:51N 34°40' E 135°21'0 0.0
2017-Oct-19 20:27N 34°40' E 135°21'0 0.0
2017-Oct-19 19:51N 34°40' E 135°21'0 0.0
2017-Oct-19 19:15N 34°40' E 135°21'0 0.0
2017-Oct-19 19:01N 34°40' E 135°21'510.8
2017-Oct-19 18:30N 34°36' E 135°16'714.8
2017-Oct-19 18:00N 34°35' E 135°07'816.9
2017-Oct-19 17:30N 34°36' E 134°57'4 0.1
2017-Oct-18 04:38N 34°37' E 135°01'212.1
2017-Oct-18 04:30N 34°37' E 135°03'815.0
2017-Oct-18 04:00N 34°37' E 135°12'815.7
2017-Oct-18 03:31N 34°40' E 135°21'3 5.6
2017-Oct-18 03:00N 34°41' E 135°23'0 0.0
2017-Oct-18 02:29N 34°41' E 135°23'0 0.0
2017-Oct-18 01:59N 34°41' E 135°23'0 0.0
2017-Oct-18 01:29N 34°41' E 135°23'0 0.0
2017-Oct-18 00:59N 34°41' E 135°23'0 0.0
2017-Oct-18 00:29N 34°41' E 135°23'0 0.0
2017-Oct-17 23:53N 34°41' E 135°23'0 0.0
2017-Oct-17 23:29N 34°41' E 135°23'0 0.0
2017-Oct-17 22:59N 34°41' E 135°23'0 0.0
2017-Oct-17 22:29N 34°41' E 135°23'2 5.1
2017-Oct-17 22:00N 34°40' E 135°21'0 0.1
2017-Oct-17 21:26N 34°40' E 135°21'0 0.0
2017-Oct-17 20:56N 34°40' E 135°21'0 0.0
2017-Oct-17 20:14N 34°40' E 135°21'0 0.0
2017-Oct-17 19:56N 34°40' E 135°21'0 0.0
2017-Oct-17 19:20N 34°40' E 135°21'0 0.0
2017-Oct-17 18:56N 34°40' E 135°21'0 0.0
2017-Oct-17 18:26N 34°40' E 135°21'0 1.0
2017-Oct-17 18:00N 34°40' E 135°20'814.8
2017-Oct-17 17:30N 34°35' E 135°13'816.2
2017-Oct-17 17:00N 34°36' E 135°03'916.3
2017-Oct-17 16:28N 34°34' E 134°53'4 0.1
2017-Oct-16 05:02N 34°37' E 134°56'014.5
2017-Oct-16 05:00N 34°37' E 134°57'713.2
2017-Oct-16 04:30N 34°36' E 135°05'815.4
2017-Oct-16 04:00N 34°37' E 135°14'815.7
2017-Oct-16 03:30N 34°41' E 135°23'1 1.6
2017-Oct-16 02:59N 34°41' E 135°23'0 0.0
2017-Oct-16 02:29N 34°41' E 135°23'0 0.0
2017-Oct-16 01:59N 34°41' E 135°23'0 0.0
2017-Oct-16 01:23N 34°41' E 135°23'0 0.1
2017-Oct-16 00:59N 34°41' E 135°23'0 0.1
2017-Oct-16 00:29N 34°41' E 135°23'0 0.0
2017-Oct-15 23:59N 34°41' E 135°23'0 0.0
2017-Oct-15 23:29N 34°41' E 135°23'0 0.0
2017-Oct-15 22:59N 34°41' E 135°23'0 0.0
2017-Oct-15 22:23N 34°41' E 135°23'0 0.1
2017-Oct-15 21:59N 34°41' E 135°23'0 0.0
2017-Oct-15 21:23N 34°41' E 135°23'0 0.0
2017-Oct-15 20:59N 34°41' E 135°23'0 0.0
2017-Oct-15 20:29N 34°41' E 135°23'0 0.0
2017-Oct-15 19:59N 34°41' E 135°23'0 0.1
2017-Oct-15 19:29N 34°41' E 135°23'0 0.0
2017-Oct-15 18:59N 34°41' E 135°23'0 0.0
2017-Oct-15 18:29N 34°41' E 135°23'0 0.0
2017-Oct-15 17:53N 34°41' E 135°23'0 0.0
2017-Oct-15 17:29N 34°41' E 135°23'0 0.1
2017-Oct-15 16:59N 34°41' E 135°23'0 0.1
2017-Oct-15 16:11N 34°41' E 135°23'0 0.0
2017-Oct-15 15:53N 34°41' E 135°23'0 0.0
2017-Oct-15 15:29N 34°41' E 135°23'0 0.0
2017-Oct-15 14:59N 34°41' E 135°23'0 0.0
2017-Oct-15 13:59N 34°41' E 135°23'0 0.1
2017-Oct-15 13:29N 34°41' E 135°23'0 0.1
2017-Oct-15 12:59N 34°41' E 135°23'0 0.1
2017-Oct-15 12:29N 34°41' E 135°23'0 0.1
2017-Oct-15 11:59N 34°41' E 135°23'0 0.0
2017-Oct-15 11:23N 34°41' E 135°23'0 0.0
2017-Oct-15 10:59N 34°41' E 135°23'0 0.1
2017-Oct-15 10:29N 34°41' E 135°23'0 0.1
2017-Oct-15 09:59N 34°41' E 135°23'0 0.0
2017-Oct-15 09:29N 34°41' E 135°23'0 0.0
2017-Oct-15 08:59N 34°41' E 135°23'0 0.1
2017-Oct-15 08:29N 34°41' E 135°23'0 0.1
2017-Oct-15 07:53N 34°41' E 135°23'0 0.0
2017-Oct-15 07:29N 34°41' E 135°23'0 0.0
2017-Oct-15 06:59N 34°41' E 135°23'0 0.1
2017-Oct-15 06:29N 34°41' E 135°23'0 0.1
2017-Oct-15 05:59N 34°41' E 135°23'0 0.0
2017-Oct-15 05:29N 34°41' E 135°23'0 0.0
2017-Oct-15 04:59N 34°41' E 135°23'0 0.0
2017-Oct-15 04:29N 34°41' E 135°23'0 0.0
2017-Oct-15 03:59N 34°41' E 135°23'0 0.1
2017-Oct-15 03:29N 34°41' E 135°23'0 0.1
2017-Oct-15 02:59N 34°41' E 135°23'0 0.1
2017-Oct-15 02:29N 34°41' E 135°23'0 0.1
2017-Oct-15 01:53N 34°41' E 135°23'0 0.1
2017-Oct-15 01:29N 34°41' E 135°23'0 0.1
2017-Oct-15 00:59N 34°41' E 135°23'0 0.0
2017-Oct-15 00:29N 34°41' E 135°23'0 0.0
2017-Oct-14 23:59N 34°41' E 135°23'0 0.0
2017-Oct-14 23:29N 34°41' E 135°23'0 0.0
2017-Oct-14 22:59N 34°41' E 135°23'0 0.0
2017-Oct-14 22:29N 34°41' E 135°23'3 5.1
2017-Oct-14 21:59N 34°40' E 135°21'0 0.0
2017-Oct-14 21:29N 34°40' E 135°21'0 0.0
2017-Oct-14 20:59N 34°40' E 135°21'0 0.0
2017-Oct-14 20:29N 34°40' E 135°21'0 0.0
2017-Oct-14 19:59N 34°40' E 135°21'0 0.0
2017-Oct-14 19:29N 34°40' E 135°21'0 0.0
2017-Oct-14 18:53N 34°40' E 135°21'3 7.8
2017-Oct-14 18:31N 34°38' E 135°18'714.5
2017-Oct-14 18:00N 34°35' E 135°10'815.3
2017-Oct-14 17:30N 34°37' E 135°01'3 0.1
2017-Oct-13 05:06N 34°37' E 134°57'318.3
2017-Oct-13 04:56N 34°37' E 135°01'716.2
2017-Oct-13 04:30N 34°36' E 135°09'815.9
2017-Oct-13 04:00N 34°39' E 135°19'5 6.8
2017-Oct-13 03:20N 34°41' E 135°23'0 0.1
2017-Oct-13 02:56N 34°41' E 135°23'0 0.1
2017-Oct-13 02:26N 34°41' E 135°23'0 0.0
2017-Oct-13 01:50N 34°41' E 135°23'0 0.0
2017-Oct-13 01:26N 34°41' E 135°23'0 0.0
2017-Oct-13 00:56N 34°41' E 135°23'0 0.0
2017-Oct-13 00:14N 34°41' E 135°23'0 0.0
2017-Oct-12 23:56N 34°41' E 135°23'0 0.1
2017-Oct-12 23:26N 34°41' E 135°23'0 0.1
2017-Oct-12 22:50N 34°41' E 135°23'2 5.6
2017-Oct-12 22:27N 34°40' E 135°21'0 0.1
2017-Oct-12 21:51N 34°40' E 135°21'0 0.1
2017-Oct-12 21:21N 34°40' E 135°21'0 0.0
2017-Oct-12 20:57N 34°40' E 135°21'0 0.1
2017-Oct-12 20:30N 34°40' E 135°21'510.0
2017-Oct-12 20:00N 34°36' E 135°17'714.0
2017-Oct-12 19:30N 34°34' E 135°09'715.0
2017-Oct-12 19:00N 34°37' E 135°01'814.9
2017-Oct-12 18:30N 34°34' E 134°52'27 0.6
2017-Oct-11 00:00N 34°41' E 135°23'0 0.0
2017-Oct-10 23:18N 34°41' E 135°23'0 0.0
2017-Oct-10 22:54N 34°41' E 135°23'0 0.1
2017-Oct-10 22:22N 34°41' E 135°23'3 4.7
2017-Oct-10 21:45N 34°40' E 135°20'0 0.0
2017-Oct-10 21:27N 34°40' E 135°20'0 0.0
2017-Oct-10 20:57N 34°40' E 135°20'0 0.0
2017-Oct-10 20:27N 34°40' E 135°20'0 0.0
2017-Oct-10 19:51N 34°40' E 135°20'0 0.2
2017-Oct-10 19:30N 34°40' E 135°20'714.0
2017-Oct-10 19:00N 34°35' E 135°14'815.8
2017-Oct-10 18:30N 34°35' E 135°04'815.1
2017-Oct-10 18:00N 34°35' E 134°55'  
Track history (hours):
 
Tides and Currents Weather Stations Pressure Air Temp Water Temp Dewpoint Dewpoint Depression Visibility Wind Speed Wind Dir Waves Ship Positions

Daihatsumaru

Last reported at 2017-Oct-20 04:59 UTC. Time now 2017-Oct-22 17:14 UTC.
Position N 34°37' E 135°01'.

Length 106 m; draft 4.5 m.

Type: Cargo ship. MMSI: 431000701.

Date/timePositionNaut miles runAvg speedWind from/ knotsBaromVisibWave heightAir tempDewpointWater temp
2017-Oct-20 04:59N 34°37' E 135°01'613.0
2017-Oct-20 04:30N 34°36' E 135°08'815.7
2017-Oct-20 04:00N 34°38' E 135°18'610.8
2017-Oct-20 03:30N 34°41' E 135°23'0 0.0
2017-Oct-20 02:57N 34°41' E 135°23'0 0.0
2017-Oct-20 02:27N 34°41' E 135°23'0 0.0
2017-Oct-20 01:50N 34°41' E 135°23'0 0.0
2017-Oct-19 23:27N 34°41' E 135°23'0 0.0
2017-Oct-19 23:00N 34°41' E 135°23'3 5.1
2017-Oct-19 22:30N 34°40' E 135°21'0 0.0
2017-Oct-19 21:51N 34°40' E 135°21'0 0.0
2017-Oct-19 21:27N 34°40' E 135°21'0 0.0
2017-Oct-19 20:51N 34°40' E 135°21'0 0.0
2017-Oct-19 20:27N 34°40' E 135°21'0 0.0
2017-Oct-19 19:51N 34°40' E 135°21'0 0.0
2017-Oct-19 19:15N 34°40' E 135°21'0 0.0
2017-Oct-19 19:01N 34°40' E 135°21'510.8
2017-Oct-19 18:30N 34°36' E 135°16'714.8
2017-Oct-19 18:00N 34°35' E 135°07'816.9
2017-Oct-19 17:30N 34°36' E 134°57'4 0.1
2017-Oct-18 04:38N 34°37' E 135°01'212.1
2017-Oct-18 04:30N 34°37' E 135°03'815.0
2017-Oct-18 04:00N 34°37' E 135°12'815.7
2017-Oct-18 03:31N 34°40' E 135°21'3 5.6
2017-Oct-18 03:00N 34°41' E 135°23'0 0.0
2017-Oct-18 02:29N 34°41' E 135°23'0 0.0
2017-Oct-18 01:59N 34°41' E 135°23'0 0.0
2017-Oct-18 01:29N 34°41' E 135°23'0 0.0
2017-Oct-18 00:59N 34°41' E 135°23'0 0.0
2017-Oct-18 00:29N 34°41' E 135°23'0 0.0
2017-Oct-17 23:53N 34°41' E 135°23'0 0.0
2017-Oct-17 23:29N 34°41' E 135°23'0 0.0
2017-Oct-17 22:59N 34°41' E 135°23'0 0.0
2017-Oct-17 22:29N 34°41' E 135°23'2 5.1
2017-Oct-17 22:00N 34°40' E 135°21'0 0.1
2017-Oct-17 21:26N 34°40' E 135°21'0 0.0
2017-Oct-17 20:56N 34°40' E 135°21'0 0.0
2017-Oct-17 20:14N 34°40' E 135°21'0 0.0
2017-Oct-17 19:56N 34°40' E 135°21'0 0.0
2017-Oct-17 19:20N 34°40' E 135°21'0 0.0
2017-Oct-17 18:56N 34°40' E 135°21'0 0.0
2017-Oct-17 18:26N 34°40' E 135°21'0 1.0
2017-Oct-17 18:00N 34°40' E 135°20'814.8
2017-Oct-17 17:30N 34°35' E 135°13'816.2
2017-Oct-17 17:00N 34°36' E 135°03'916.3
2017-Oct-17 16:28N 34°34' E 134°53'4 0.1
2017-Oct-16 05:02N 34°37' E 134°56'014.5
2017-Oct-16 05:00N 34°37' E 134°57'713.2
2017-Oct-16 04:30N 34°36' E 135°05'815.4
2017-Oct-16 04:00N 34°37' E 135°14'815.7
2017-Oct-16 03:30N 34°41' E 135°23'1 1.6
2017-Oct-16 02:59N 34°41' E 135°23'0 0.0
2017-Oct-16 02:29N 34°41' E 135°23'0 0.0
2017-Oct-16 01:59N 34°41' E 135°23'0 0.0
2017-Oct-16 01:23N 34°41' E 135°23'0 0.1
2017-Oct-16 00:59N 34°41' E 135°23'0 0.1
2017-Oct-16 00:29N 34°41' E 135°23'0 0.0
2017-Oct-15 23:59N 34°41' E 135°23'0 0.0
2017-Oct-15 23:29N 34°41' E 135°23'0 0.0
2017-Oct-15 22:59N 34°41' E 135°23'0 0.0
2017-Oct-15 22:23N 34°41' E 135°23'0 0.1
2017-Oct-15 21:59N 34°41' E 135°23'0 0.0
2017-Oct-15 21:23N 34°41' E 135°23'0 0.0
2017-Oct-15 20:59N 34°41' E 135°23'0 0.0
2017-Oct-15 20:29N 34°41' E 135°23'0 0.0
2017-Oct-15 19:59N 34°41' E 135°23'0 0.1
2017-Oct-15 19:29N 34°41' E 135°23'0 0.0
2017-Oct-15 18:59N 34°41' E 135°23'0 0.0
2017-Oct-15 18:29N 34°41' E 135°23'0 0.0
2017-Oct-15 17:53N 34°41' E 135°23'0 0.0
2017-Oct-15 17:29N 34°41' E 135°23'0 0.1
2017-Oct-15 16:59N 34°41' E 135°23'0 0.1
2017-Oct-15 16:11N 34°41' E 135°23'0 0.0
2017-Oct-15 15:53N 34°41' E 135°23'0 0.0
2017-Oct-15 15:29N 34°41' E 135°23'0 0.0
2017-Oct-15 14:59N 34°41' E 135°23'0 0.0
2017-Oct-15 13:59N 34°41' E 135°23'0 0.1
2017-Oct-15 13:29N 34°41' E 135°23'0 0.1
2017-Oct-15 12:59N 34°41' E 135°23'0 0.1
2017-Oct-15 12:29N 34°41' E 135°23'0 0.1
2017-Oct-15 11:59N 34°41' E 135°23'0 0.0
2017-Oct-15 11:23N 34°41' E 135°23'0 0.0
2017-Oct-15 10:59N 34°41' E 135°23'0 0.1
2017-Oct-15 10:29N 34°41' E 135°23'0 0.1
2017-Oct-15 09:59N 34°41' E 135°23'0 0.0
2017-Oct-15 09:29N 34°41' E 135°23'0 0.0
2017-Oct-15 08:59N 34°41' E 135°23'0 0.1
2017-Oct-15 08:29N 34°41' E 135°23'0 0.1
2017-Oct-15 07:53N 34°41' E 135°23'0 0.0
2017-Oct-15 07:29N 34°41' E 135°23'0 0.0
2017-Oct-15 06:59N 34°41' E 135°23'0 0.1
2017-Oct-15 06:29N 34°41' E 135°23'0 0.1
2017-Oct-15 05:59N 34°41' E 135°23'0 0.0
2017-Oct-15 05:29N 34°41' E 135°23'0 0.0
2017-Oct-15 04:59N 34°41' E 135°23'0 0.0
2017-Oct-15 04:29N 34°41' E 135°23'0 0.0
2017-Oct-15 03:59N 34°41' E 135°23'0 0.1
2017-Oct-15 03:29N 34°41' E 135°23'0 0.1
2017-Oct-15 02:59N 34°41' E 135°23'0 0.1
2017-Oct-15 02:29N 34°41' E 135°23'0 0.1
2017-Oct-15 01:53N 34°41' E 135°23'0 0.1
2017-Oct-15 01:29N 34°41' E 135°23'0 0.1
2017-Oct-15 00:59N 34°41' E 135°23'0 0.0
2017-Oct-15 00:29N 34°41' E 135°23'0 0.0
2017-Oct-14 23:59N 34°41' E 135°23'0 0.0
2017-Oct-14 23:29N 34°41' E 135°23'0 0.0
2017-Oct-14 22:59N 34°41' E 135°23'0 0.0
2017-Oct-14 22:29N 34°41' E 135°23'3 5.1
2017-Oct-14 21:59N 34°40' E 135°21'0 0.0
2017-Oct-14 21:29N 34°40' E 135°21'0 0.0
2017-Oct-14 20:59N 34°40' E 135°21'0 0.0
2017-Oct-14 20:29N 34°40' E 135°21'0 0.0
2017-Oct-14 19:59N 34°40' E 135°21'0 0.0
2017-Oct-14 19:29N 34°40' E 135°21'0 0.0
2017-Oct-14 18:53N 34°40' E 135°21'3 7.8
2017-Oct-14 18:31N 34°38' E 135°18'714.5
2017-Oct-14 18:00N 34°35' E 135°10'815.3
2017-Oct-14 17:30N 34°37' E 135°01'3 0.1
2017-Oct-13 05:06N 34°37' E 134°57'318.3
2017-Oct-13 04:56N 34°37' E 135°01'716.2
2017-Oct-13 04:30N 34°36' E 135°09'815.9
2017-Oct-13 04:00N 34°39' E 135°19'5 6.8
2017-Oct-13 03:20N 34°41' E 135°23'0 0.1
2017-Oct-13 02:56N 34°41' E 135°23'0 0.1
2017-Oct-13 02:26N 34°41' E 135°23'0 0.0
2017-Oct-13 01:50N 34°41' E 135°23'0 0.0
2017-Oct-13 01:26N 34°41' E 135°23'0 0.0
2017-Oct-13 00:56N 34°41' E 135°23'0 0.0
2017-Oct-13 00:14N 34°41' E 135°23'0 0.0
2017-Oct-12 23:56N 34°41' E 135°23'0 0.1
2017-Oct-12 23:26N 34°41' E 135°23'0 0.1
2017-Oct-12 22:50N 34°41' E 135°23'2 5.6
2017-Oct-12 22:27N 34°40' E 135°21'0 0.1
2017-Oct-12 21:51N 34°40' E 135°21'0 0.1
2017-Oct-12 21:21N 34°40' E 135°21'0 0.0
2017-Oct-12 20:57N 34°40' E 135°21'0 0.1
2017-Oct-12 20:30N 34°40' E 135°21'510.0
2017-Oct-12 20:00N 34°36' E 135°17'714.0
2017-Oct-12 19:30N 34°34' E 135°09'715.0
2017-Oct-12 19:00N 34°37' E 135°01'814.9
2017-Oct-12 18:30N 34°34' E 134°52'27 0.6
2017-Oct-11 00:00N 34°41' E 135°23'0 0.0
2017-Oct-10 23:18N 34°41' E 135°23'0 0.0
2017-Oct-10 22:54N 34°41' E 135°23'0 0.1
2017-Oct-10 22:22N 34°41' E 135°23'3 4.7
2017-Oct-10 21:45N 34°40' E 135°20'0 0.0
2017-Oct-10 21:27N 34°40' E 135°20'0 0.0
2017-Oct-10 20:57N 34°40' E 135°20'0 0.0
2017-Oct-10 20:27N 34°40' E 135°20'0 0.0
2017-Oct-10 19:51N 34°40' E 135°20'0 0.2
2017-Oct-10 19:30N 34°40' E 135°20'714.0
2017-Oct-10 19:00N 34°35' E 135°14'815.8
2017-Oct-10 18:30N 34°35' E 135°04'815.1
2017-Oct-10 18:00N 34°35' E 134°55'  

Dump ship's entire track history